Time;durP1;ratioP1;P1;durP2;ratioP2;P2;SDS_P1;SDS_P2;PMS_P1;PMS_P2;Temp;Humidity;BMP_temperature;BMP_pressure;BME280_temperature;BME280_humidity;BME280_pressure;Samples;Min_cycle;Max_cycle;Signal;HPM_P1;HPM_P2
2022/10/09 00:01:13;;;;;;;6.30;1.98;;;8.50;99.90;;;;;;5095538;27;20310;-68
2022/10/09 00:03:40;;;;;;;6.97;2.15;;;8.60;99.90;;;;;;5109328;27;20504;-67
2022/10/09 00:06:07;;;;;;;7.47;2.25;;;8.60;99.90;;;;;;5124598;27;20107;-67
2022/10/09 00:08:34;;;;;;;6.88;2.08;;;8.60;99.90;;;;;;5125567;27;20047;-67
2022/10/09 00:11:04;;;;;;;6.53;2.30;;;8.50;99.90;;;;;;5112861;27;20047;-66
2022/10/09 00:13:30;;;;;;;6.60;1.90;;;8.40;99.90;;;;;;5066589;27;20574;-68
2022/10/09 00:15:56;;;;;;;7.28;2.22;;;8.40;99.90;;;;;;5123065;27;20070;-67
2022/10/09 00:18:22;;;;;;;5.05;1.90;;;8.30;99.90;;;;;;5122464;27;20082;-68
2022/10/09 00:20:47;;;;;;;10.80;2.40;;;8.30;99.90;;;;;;5111498;27;20043;-67
2022/10/09 00:23:15;;;;;;;5.40;2.10;;;8.30;99.90;;;;;;5127756;27;20761;-67
2022/10/09 00:25:50;;;;;;;8.33;2.77;;;8.30;99.90;;;;;;5125078;27;20043;-67
2022/10/09 00:28:16;;;;;;;7.25;2.10;;;8.30;99.90;;;;;;5087289;27;20039;-66
2022/10/09 00:30:41;;;;;;;7.65;2.00;;;8.20;99.90;;;;;;5104868;27;20047;-67
2022/10/09 00:33:07;;;;;;;6.75;2.30;;;8.30;99.90;;;;;;5128868;27;20059;-67
2022/10/09 00:35:34;;;;;;;6.88;2.10;;;8.30;99.90;;;;;;5120260;27;20062;-67
2022/10/09 00:37:59;;;;;;;8.57;2.05;;;8.30;99.90;;;;;;5063460;27;20132;-68
2022/10/09 00:40:25;;;;;;;8.70;2.28;;;8.40;99.90;;;;;;5064035;27;20468;-68
2022/10/09 00:42:56;;;;;;;7.22;2.10;;;8.40;99.90;;;;;;5090630;27;20116;-68
2022/10/09 00:45:22;;;;;;;8.02;2.15;;;8.40;99.90;;;;;;5106570;27;20048;-67
2022/10/09 00:48:01;;;;;;;9.52;2.33;;;8.40;99.90;;;;;;5127844;27;20043;-67
2022/10/09 00:50:34;;;;;;;9.25;2.40;;;8.40;99.90;;;;;;5113388;27;20043;-67
2022/10/09 00:53:00;;;;;;;7.18;2.85;;;8.40;99.90;;;;;;5102677;27;20039;-67
2022/10/09 00:55:26;;;;;;;8.98;2.40;;;8.30;99.90;;;;;;5094292;27;20103;-67
2022/10/09 00:57:53;;;;;;;6.32;2.67;;;8.50;99.90;;;;;;5089791;28;20039;-68
2022/10/09 01:00:19;;;;;;;9.07;2.03;;;8.50;99.90;;;;;;5125193;27;20043;-67
2022/10/09 01:02:45;;;;;;;5.65;1.70;;;8.40;99.90;;;;;;5123577;27;20506;-67
2022/10/09 01:05:11;;;;;;;3.67;1.88;;;8.40;99.90;;;;;;5110970;27;20124;-67
2022/10/09 01:07:57;;;;;;;7.57;1.90;;;8.40;99.90;;;;;;5126707;27;20168;-67
2022/10/09 01:10:26;;;;;;;7.13;1.85;;;8.40;99.90;;;;;;5127938;27;20126;-67
2022/10/09 01:13:07;;;;;;;10.20;2.10;;;8.50;99.90;;;;;;5116044;27;20054;-67
2022/10/09 01:15:37;;;;;;;8.82;2.28;;;8.50;99.90;;;;;;5128247;27;20039;-67
2022/10/09 01:18:41;;;;;;;8.70;1.80;;;8.50;99.90;;;;;;5121186;27;20049;-67
2022/10/09 01:21:22;;;;;;;5.05;1.63;;;8.40;99.90;;;;;;5119033;27;20139;-67
2022/10/09 01:24:07;;;;;;;5.47;1.92;;;8.50;99.90;;;;;;5104237;28;20040;-67
2022/10/09 01:26:54;;;;;;;9.57;2.20;;;8.50;99.90;;;;;;5104809;27;20192;-67
2022/10/09 01:29:20;;;;;;;6.53;1.65;;;8.50;99.90;;;;;;5107055;28;20061;-67
2022/10/09 01:31:47;;;;;;;7.05;1.92;;;8.50;99.90;;;;;;5091815;27;20046;-67
2022/10/09 01:34:13;;;;;;;7.57;2.28;;;8.50;99.90;;;;;;5104820;28;20051;-67
2022/10/09 01:36:39;;;;;;;5.78;2.28;;;8.40;99.90;;;;;;5069042;28;20066;-67
2022/10/09 01:39:05;;;;;;;6.22;1.75;;;8.40;99.90;;;;;;5115825;27;20080;-68
2022/10/09 01:41:31;;;;;;;8.05;2.00;;;8.40;99.90;;;;;;5069858;27;20078;-67
2022/10/09 01:43:59;;;;;;;7.57;1.85;;;8.40;99.90;;;;;;5092785;27;20582;-67
2022/10/09 01:46:27;;;;;;;6.55;2.13;;;8.40;99.90;;;;;;5103042;27;20038;-67
2022/10/09 01:49:06;;;;;;;7.05;1.90;;;8.50;99.90;;;;;;5082697;27;20042;-67
2022/10/09 01:51:37;;;;;;;5.65;1.75;;;8.40;99.90;;;;;;5126496;27;20046;-67
2022/10/09 01:54:03;;;;;;;5.93;2.10;;;8.40;99.90;;;;;;5076189;27;20047;-68
2022/10/09 01:56:29;;;;;;;9.32;2.15;;;8.50;99.90;;;;;;5101776;27;20043;-68
2022/10/09 01:59:00;;;;;;;8.50;1.77;;;8.40;99.90;;;;;;5099180;27;20104;-67
2022/10/09 02:01:27;;;;;;;6.43;1.85;;;8.20;99.90;;;;;;5088867;28;20364;-68
2022/10/09 02:03:53;;;;;;;7.07;1.85;;;8.20;99.90;;;;;;5109356;27;20367;-67
2022/10/09 02:06:19;;;;;;;6.53;1.77;;;8.20;99.90;;;;;;5074326;27;20043;-67
2022/10/09 02:08:46;;;;;;;10.25;2.00;;;8.20;99.90;;;;;;5108160;27;20058;-66
2022/10/09 02:11:13;;;;;;;6.38;2.22;;;8.20;99.90;;;;;;5098472;28;20069;-67
2022/10/09 02:13:39;;;;;;;9.10;2.00;;;8.20;99.90;;;;;;5118463;27;20590;-67
2022/10/09 02:16:23;;;;;;;10.63;2.20;;;8.10;99.90;;;;;;5087971;28;20047;-67
2022/10/09 02:18:54;;;;;;;8.25;1.95;;;8.10;99.90;;;;;;5111188;27;20043;-67
2022/10/09 02:21:41;;;;;;;9.82;2.00;;;8.10;99.90;;;;;;5099333;28;20075;-66
2022/10/09 02:24:08;;;;;;;9.77;1.80;;;8.10;99.90;;;;;;5102143;27;20046;-68
2022/10/09 02:26:35;;;;;;;5.82;1.88;;;8.10;99.90;;;;;;5073025;27;20044;-67
2022/10/09 02:29:00;;;;;;;5.50;2.17;;;8.00;99.90;;;;;;5101831;27;20209;-68
2022/10/09 02:31:27;;;;;;;7.65;1.88;;;8.00;99.90;;;;;;5108452;27;20499;-67
2022/10/09 02:34:01;;;;;;;9.10;2.10;;;8.10;99.90;;;;;;5119439;27;20045;-68
2022/10/09 02:36:27;;;;;;;3.53;1.60;;;8.00;99.90;;;;;;5088463;27;20695;-67
2022/10/09 02:38:53;;;;;;;7.43;2.00;;;8.10;99.90;;;;;;5097876;27;20051;-67
2022/10/09 02:41:19;;;;;;;5.35;1.90;;;8.10;99.90;;;;;;5107517;27;20062;-67
2022/10/09 02:43:45;;;;;;;8.23;2.10;;;8.10;99.90;;;;;;5102301;27;20036;-67
2022/10/09 02:46:12;;;;;;;8.25;2.65;;;8.10;99.90;;;;;;5093670;27;20039;-67
2022/10/09 02:48:37;;;;;;;7.13;1.80;;;8.10;99.90;;;;;;5089702;27;20112;-67
2022/10/09 02:51:03;;;;;;;7.75;2.00;;;8.10;99.90;;;;;;5109615;27;20096;-66
2022/10/09 02:53:30;;;;;;;9.60;2.20;;;8.10;99.90;;;;;;5107385;27;20849;-68
2022/10/09 02:55:56;;;;;;;8.32;2.03;;;8.10;99.90;;;;;;5109967;28;20054;-66
2022/10/09 02:58:23;;;;;;;4.97;1.77;;;8.10;99.90;;;;;;5084930;27;20047;-67
2022/10/09 03:00:52;;;;;;;6.43;2.42;;;8.10;99.90;;;;;;5123912;27;20047;-66
2022/10/09 03:03:18;;;;;;;7.95;2.00;;;8.10;99.90;;;;;;5106476;28;20111;-67
2022/10/09 03:05:44;;;;;;;6.18;1.83;;;8.10;99.90;;;;;;5106320;28;20528;-67
2022/10/09 03:08:10;;;;;;;5.68;1.80;;;8.10;99.90;;;;;;5124554;28;20046;-67
2022/10/09 03:10:40;;;;;;;10.93;6.03;;;8.10;99.90;;;;;;5105570;28;20367;-67
2022/10/09 03:13:06;;;;;;;41.72;25.45;;;8.10;99.90;;;;;;5102728;28;20103;-68
2022/10/09 03:15:35;;;;;;;28.40;19.88;;;8.10;99.90;;;;;;5087816;28;20473;-67
2022/10/09 03:18:01;;;;;;;10.25;5.68;;;8.10;99.90;;;;;;5123676;28;20051;-67
2022/10/09 03:20:28;;;;;;;27.50;17.83;;;8.10;99.90;;;;;;5084233;28;20039;-67
2022/10/09 03:22:55;;;;;;;40.60;26.63;;;8.10;99.90;;;;;;5102951;28;20131;-67
2022/10/09 03:25:21;;;;;;;22.98;14.35;;;8.00;99.90;;;;;;5102991;28;20069;-66
2022/10/09 03:27:47;;;;;;;16.88;8.73;;;8.00;99.90;;;;;;5104871;28;20123;-67
2022/10/09 03:30:13;;;;;;;12.30;4.85;;;8.00;99.90;;;;;;5104240;28;20072;-67
2022/10/09 03:32:38;;;;;;;11.40;3.20;;;8.00;99.90;;;;;;5122160;27;20058;-67
2022/10/09 03:35:04;;;;;;;11.77;5.65;;;8.00;99.90;;;;;;5129016;27;20059;-68
2022/10/09 03:37:30;;;;;;;6.65;2.33;;;8.00;99.90;;;;;;5122153;27;20422;-67
2022/10/09 03:39:57;;;;;;;13.65;7.70;;;8.00;99.90;;;;;;5126353;27;20047;-68
2022/10/09 03:42:22;;;;;;;5.65;2.38;;;8.00;99.90;;;;;;5128647;27;20043;-67
2022/10/09 03:44:48;;;;;;;6.07;1.98;;;7.90;99.90;;;;;;5093343;27;20568;-67
2022/10/09 03:47:14;;;;;;;6.65;1.85;;;7.90;99.90;;;;;;5089465;28;20051;-67
2022/10/09 03:49:40;;;;;;;9.02;1.75;;;7.80;99.90;;;;;;5095452;27;20424;-67
2022/10/09 03:52:06;;;;;;;5.68;1.60;;;7.70;99.90;;;;;;5101370;27;20071;-67
2022/10/09 03:54:31;;;;;;;9.18;2.03;;;7.50;99.90;;;;;;5123309;27;20043;-67
2022/10/09 03:56:57;;;;;;;9.32;1.77;;;7.50;99.90;;;;;;5086977;27;20058;-68
2022/10/09 03:59:23;;;;;;;9.48;2.30;;;7.40;99.90;;;;;;5131626;27;20160;-68
2022/10/09 04:01:49;;;;;;;10.07;2.15;;;7.40;99.90;;;;;;5130096;27;20065;-67
2022/10/09 04:04:14;;;;;;;8.68;2.30;;;7.30;99.90;;;;;;5110350;27;20258;-67
2022/10/09 04:06:40;;;;;;;11.52;2.70;;;7.30;99.90;;;;;;5092066;27;20043;-67
2022/10/09 04:09:06;;;;;;;8.27;2.90;;;7.40;99.90;;;;;;5126982;27;20341;-68
2022/10/09 04:11:32;;;;;;;7.00;2.08;;;7.40;99.90;;;;;;5109457;27;20428;-67
2022/10/09 04:13:57;;;;;;;8.77;2.35;;;7.40;99.90;;;;;;5069486;27;20126;-67
2022/10/09 04:16:23;;;;;;;7.85;1.85;;;7.30;99.90;;;;;;5122692;27;20043;-66
2022/10/09 04:18:49;;;;;;;6.03;1.75;;;7.40;99.90;;;;;;5091770;27;20134;-66
2022/10/09 04:21:14;;;;;;;8.75;2.00;;;7.20;99.90;;;;;;5127203;27;20058;-67
2022/10/09 04:23:41;;;;;;;8.57;1.77;;;7.30;99.90;;;;;;5101452;28;20039;-66
2022/10/09 04:26:09;;;;;;;8.32;2.28;;;7.40;99.90;;;;;;5067913;28;20452;-67
2022/10/09 04:28:35;;;;;;;12.15;2.20;;;7.30;99.90;;;;;;5102064;27;20043;-67
2022/10/09 04:31:01;;;;;;;5.82;1.80;;;7.40;99.90;;;;;;5095771;28;20620;-67
2022/10/09 04:33:26;;;;;;;7.85;1.90;;;7.50;99.90;;;;;;5107052;28;20051;-66
2022/10/09 04:35:53;;;;;;;5.93;1.95;;;7.50;99.90;;;;;;5082022;27;20062;-66
2022/10/09 04:38:19;;;;;;;8.80;1.85;;;7.50;99.90;;;;;;5076936;27;20046;-68
2022/10/09 04:40:57;;;;;;;12.15;2.00;;;7.50;99.90;;;;;;5088180;28;20062;-66
2022/10/09 04:43:23;;;;;;;10.55;1.52;;;7.50;99.90;;;;;;5125454;27;20061;-68
2022/10/09 04:45:48;;;;;;;11.77;2.63;;;7.50;99.90;;;;;;5110318;27;20047;-67
2022/10/09 04:48:14;;;;;;;8.48;2.03;;;7.50;99.90;;;;;;5064784;28;20128;-67
2022/10/09 04:50:40;;;;;;;13.07;2.58;;;7.50;99.90;;;;;;5106286;28;20051;-67
2022/10/09 04:53:07;;;;;;;6.93;1.98;;;7.50;99.90;;;;;;5118570;27;20364;-67
2022/10/09 04:55:38;;;;;;;9.75;1.90;;;7.50;99.90;;;;;;5111069;27;20047;-67
2022/10/09 04:58:03;;;;;;;9.65;2.40;;;7.40;99.90;;;;;;5093698;27;20058;-67
2022/10/09 05:00:29;;;;;;;8.00;2.10;;;7.40;99.90;;;;;;5102416;27;20050;-67
2022/10/09 05:02:55;;;;;;;7.38;1.70;;;7.50;99.90;;;;;;5110046;27;20081;-66
2022/10/09 05:05:22;;;;;;;7.28;1.70;;;7.40;99.90;;;;;;5106838;28;20728;-66
2022/10/09 05:07:47;;;;;;;8.75;2.22;;;7.50;99.90;;;;;;5125380;27;20140;-68
2022/10/09 05:10:16;;;;;;;10.07;2.65;;;7.40;99.90;;;;;;5116025;27;20146;-68
2022/10/09 05:12:42;;;;;;;7.93;2.00;;;7.40;99.90;;;;;;5103825;27;20511;-67
2022/10/09 05:15:08;;;;;;;6.35;2.05;;;7.40;99.90;;;;;;5102595;28;20091;-67
2022/10/09 05:17:34;;;;;;;10.48;2.55;;;7.40;99.90;;;;;;5103120;27;20035;-67
2022/10/09 05:19:59;;;;;;;8.55;2.22;;;7.30;99.90;;;;;;5086214;28;20055;-67
2022/10/09 05:22:25;;;;;;;5.65;1.98;;;7.30;99.90;;;;;;5083021;28;20050;-70
2022/10/09 05:24:51;;;;;;;7.20;2.17;;;7.40;99.90;;;;;;5081415;28;20662;-66
2022/10/09 05:27:17;;;;;;;11.50;2.47;;;7.40;99.90;;;;;;5083264;28;20150;-67
2022/10/09 05:29:42;;;;;;;9.98;2.50;;;7.40;99.90;;;;;;5076122;28;20039;-67
2022/10/09 05:32:08;;;;;;;10.65;2.55;;;7.40;99.90;;;;;;5097191;27;20049;-67
2022/10/09 05:34:34;;;;;;;8.02;2.22;;;7.40;99.90;;;;;;5086441;27;20423;-65
2022/10/09 05:37:00;;;;;;;7.95;2.50;;;7.30;99.90;;;;;;5069520;27;20083;-66
2022/10/09 05:39:26;;;;;;;11.32;2.28;;;7.30;99.90;;;;;;5086565;27;20087;-67
2022/10/09 05:41:53;;;;;;;10.38;2.65;;;7.40;99.90;;;;;;5099491;27;20076;-69
2022/10/09 05:44:19;;;;;;;5.88;2.20;;;7.30;99.90;;;;;;5106058;27;20504;-66
2022/10/09 05:46:44;;;;;;;9.82;2.78;;;7.30;99.90;;;;;;5105823;27;20039;-67
2022/10/09 05:49:11;;;;;;;11.40;2.45;;;7.30;99.90;;;;;;5094848;27;20035;-66
2022/10/09 05:51:38;;;;;;;5.90;2.22;;;7.30;99.90;;;;;;5099327;28;20044;-66
2022/10/09 05:54:04;;;;;;;11.27;2.25;;;7.30;99.90;;;;;;5066990;28;20039;-66
2022/10/09 05:56:31;;;;;;;9.88;2.72;;;7.40;99.90;;;;;;5100477;27;20036;-66
2022/10/09 05:58:59;;;;;;;9.15;2.15;;;7.30;99.90;;;;;;5087312;27;20043;-66
2022/10/09 06:01:26;;;;;;;7.80;2.38;;;7.40;99.90;;;;;;5102212;27;20048;-67
2022/10/09 06:03:53;;;;;;;14.33;2.40;;;7.40;99.90;;;;;;5112917;27;20364;-68
2022/10/09 06:06:20;;;;;;;8.55;2.28;;;7.40;99.90;;;;;;5086161;27;20040;-67
2022/10/09 06:08:46;;;;;;;8.93;2.22;;;7.30;99.90;;;;;;5084696;27;20074;-66
2022/10/09 06:11:20;;;;;;;8.15;2.28;;;7.40;99.90;;;;;;5103341;27;20082;-67
2022/10/09 06:13:46;;;;;;;8.20;2.08;;;7.40;99.90;;;;;;5109976;27;20455;-67
2022/10/09 06:16:13;;;;;;;9.07;2.55;;;7.40;99.90;;;;;;5112057;27;20061;-66
2022/10/09 06:18:39;;;;;;;12.98;2.92;;;7.50;99.90;;;;;;5111185;27;20047;-69
2022/10/09 06:21:05;;;;;;;6.50;2.47;;;7.50;99.90;;;;;;5109735;27;20054;-67
2022/10/09 06:23:31;;;;;;;9.32;2.88;;;7.50;99.90;;;;;;5118807;27;20046;-67
2022/10/09 06:26:02;;;;;;;10.30;2.60;;;7.60;99.90;;;;;;5114868;27;20040;-68
2022/10/09 06:28:28;;;;;;;8.10;2.20;;;7.60;99.90;;;;;;5103710;28;20040;-66
2022/10/09 06:31:00;;;;;;;10.57;2.28;;;7.50;99.90;;;;;;5107048;27;20100;-68
2022/10/09 06:33:29;;;;;;;6.38;2.10;;;7.60;99.90;;;;;;5121041;27;20058;-66
2022/10/09 06:35:58;;;;;;;8.23;2.38;;;7.60;99.90;;;;;;5106649;27;20066;-67
2022/10/09 06:38:24;;;;;;;11.40;2.10;;;7.70;99.90;;;;;;5110317;27;20116;-67
2022/10/09 06:40:50;;;;;;;6.32;2.25;;;7.70;99.90;;;;;;5116639;27;20133;-67
2022/10/09 06:43:15;;;;;;;8.57;2.30;;;7.80;99.90;;;;;;5122936;27;20367;-68
2022/10/09 06:45:41;;;;;;;7.30;2.17;;;7.80;99.90;;;;;;5122030;27;20054;-67
2022/10/09 06:48:07;;;;;;;7.80;2.42;;;7.90;99.90;;;;;;5105341;27;20050;-67
2022/10/09 06:50:35;;;;;;;8.10;3.05;;;7.90;99.90;;;;;;5127932;27;20039;-68
2022/10/09 06:53:01;;;;;;;8.13;2.92;;;8.00;99.90;;;;;;5105868;28;20456;-68
2022/10/09 06:55:27;;;;;;;9.80;2.03;;;8.00;99.90;;;;;;5122006;27;20050;-67
2022/10/09 06:57:53;;;;;;;7.68;2.60;;;8.00;99.90;;;;;;5097120;27;20054;-67
2022/10/09 07:00:18;;;;;;;8.70;2.75;;;8.00;99.90;;;;;;5108457;28;20043;-66
2022/10/09 07:02:44;;;;;;;11.43;3.47;;;8.00;99.90;;;;;;5094119;28;20062;-68
2022/10/09 07:05:10;;;;;;;9.75;2.70;;;8.10;99.90;;;;;;5090689;28;20047;-67
2022/10/09 07:07:39;;;;;;;11.13;2.75;;;8.20;99.90;;;;;;5092433;28;20107;-67
2022/10/09 07:10:05;;;;;;;7.55;2.70;;;8.20;99.90;;;;;;5076994;28;20103;-67
2022/10/09 07:12:33;;;;;;;8.15;2.67;;;8.20;99.90;;;;;;5116930;28;20183;-66
2022/10/09 07:14:59;;;;;;;9.40;2.38;;;8.20;99.90;;;;;;5085340;28;20051;-66
2022/10/09 07:17:26;;;;;;;10.63;2.85;;;8.30;99.90;;;;;;5083340;28;20047;-66
2022/10/09 07:19:51;;;;;;;11.52;2.85;;;8.30;99.90;;;;;;5108197;28;20420;-67
2022/10/09 07:22:17;;;;;;;9.55;2.50;;;8.30;99.90;;;;;;5103396;28;20071;-68
2022/10/09 07:24:43;;;;;;;9.40;2.38;;;8.40;99.90;;;;;;5090316;28;20043;-67
2022/10/09 07:27:09;;;;;;;15.77;2.40;;;8.40;99.90;;;;;;5106708;28;20047;-67
2022/10/09 07:29:35;;;;;;;8.80;2.60;;;8.40;99.90;;;;;;5085595;28;20047;-66
2022/10/09 07:32:00;;;;;;;9.52;2.85;;;8.50;99.90;;;;;;5104707;28;20047;-66
2022/10/09 07:34:26;;;;;;;7.88;2.35;;;8.50;99.90;;;;;;5104482;28;20599;-66
2022/10/09 07:36:52;;;;;;;10.60;2.47;;;8.60;99.90;;;;;;5125451;28;20054;-67
2022/10/09 07:39:18;;;;;;;10.90;2.30;;;8.60;99.90;;;;;;5093701;28;20668;-67
2022/10/09 07:41:44;;;;;;;8.00;2.17;;;8.70;99.90;;;;;;5125379;27;20058;-67
2022/10/09 07:44:10;;;;;;;8.40;2.53;;;8.80;99.90;;;;;;5127981;28;20047;-68
2022/10/09 07:46:36;;;;;;;6.95;2.40;;;8.90;99.90;;;;;;5108890;28;20039;-66
2022/10/09 07:49:02;;;;;;;10.27;2.47;;;8.90;99.90;;;;;;5104763;28;20146;-68
2022/10/09 07:51:28;;;;;;;7.18;2.60;;;8.90;99.90;;;;;;5091991;28;20055;-67
2022/10/09 07:53:56;;;;;;;7.65;2.60;;;9.00;99.90;;;;;;5066919;28;20048;-68
2022/10/09 07:56:32;;;;;;;13.98;2.75;;;9.00;99.90;;;;;;5105826;28;20053;-68
2022/10/09 07:59:12;;;;;;;10.43;3.35;;;9.20;99.90;;;;;;5111687;28;20039;-68
2022/10/09 08:01:38;;;;;;;7.93;2.80;;;9.20;99.90;;;;;;5111743;28;20047;-68
2022/10/09 08:04:04;;;;;;;14.65;3.30;;;9.30;99.90;;;;;;5111203;28;20349;-69
2022/10/09 08:06:30;;;;;;;9.10;3.13;;;9.40;99.90;;;;;;5100237;28;20046;-68
2022/10/09 08:08:57;;;;;;;8.93;3.10;;;9.50;99.90;;;;;;5105852;28;20043;-68
2022/10/09 08:11:23;;;;;;;8.57;2.85;;;9.50;99.90;;;;;;5105754;28;20079;-68
2022/10/09 08:13:49;;;;;;;9.40;2.72;;;9.60;99.90;;;;;;5109258;28;20047;-68
2022/10/09 08:16:16;;;;;;;9.27;2.15;;;9.60;99.90;;;;;;5128028;27;20107;-67
2022/10/09 08:18:42;;;;;;;8.40;2.30;;;9.70;99.90;;;;;;5114165;27;20051;-67
2022/10/09 08:21:10;;;;;;;9.95;2.50;;;9.80;99.90;;;;;;5130253;27;20051;-67
2022/10/09 08:23:36;;;;;;;12.20;2.65;;;9.80;99.90;;;;;;5087710;27;20122;-68
2022/10/09 08:26:02;;;;;;;9.80;2.60;;;9.90;99.90;;;;;;5118650;27;20123;-66
2022/10/09 08:28:27;;;;;;;6.88;2.20;;;10.00;99.90;;;;;;5097717;27;20043;-68
2022/10/09 08:30:53;;;;;;;9.73;2.67;;;10.10;99.90;;;;;;5097519;27;20391;-67
2022/10/09 08:33:20;;;;;;;11.63;3.17;;;10.20;99.90;;;;;;5124764;27;20100;-67
2022/10/09 08:35:50;;;;;;;11.02;3.17;;;10.20;99.90;;;;;;5114579;27;20335;-68
2022/10/09 08:38:16;;;;;;;14.55;3.10;;;10.30;99.90;;;;;;5097083;27;20128;-68
2022/10/09 08:40:54;;;;;;;9.90;2.85;;;10.30;99.90;;;;;;5110697;27;20058;-68
2022/10/09 08:43:27;;;;;;;12.57;3.30;;;10.40;99.90;;;;;;5127418;27;20039;-68
2022/10/09 08:45:53;;;;;;;15.32;2.95;;;10.40;99.90;;;;;;5129161;27;20329;-68
2022/10/09 08:48:21;;;;;;;12.18;2.97;;;10.50;99.90;;;;;;5093965;28;20057;-68
2022/10/09 08:50:52;;;;;;;14.27;2.85;;;10.50;99.90;;;;;;5072077;27;20043;-69
2022/10/09 08:53:18;;;;;;;9.43;2.58;;;10.60;99.90;;;;;;5131326;27;20039;-68
2022/10/09 08:55:55;;;;;;;9.80;2.30;;;10.70;99.90;;;;;;5128567;27;20031;-67
2022/10/09 08:58:21;;;;;;;9.85;2.47;;;10.80;99.90;;;;;;5090704;28;20807;-68
2022/10/09 09:00:58;;;;;;;10.23;2.42;;;10.80;99.90;;;;;;5096898;28;20043;-67
2022/10/09 09:03:37;;;;;;;10.05;2.40;;;11.00;99.90;;;;;;5117863;27;20456;-67
2022/10/09 09:06:03;;;;;;;12.82;2.08;;;11.10;99.90;;;;;;5112291;27;20134;-68
2022/10/09 09:08:47;;;;;;;14.23;2.47;;;11.20;99.90;;;;;;5123366;27;20134;-68
2022/10/09 09:11:21;;;;;;;10.57;2.22;;;11.20;99.90;;;;;;5094481;27;20043;-68
2022/10/09 09:14:06;;;;;;;8.27;2.53;;;11.40;99.90;;;;;;5099695;28;20044;-68
2022/10/09 09:17:02;;;;;;;12.35;2.30;;;11.40;99.90;;;;;;5124991;27;20054;-68
2022/10/09 09:19:47;;;;;;;8.70;1.95;;;11.50;99.90;;;;;;5110683;28;20067;-68
2022/10/09 09:22:13;;;;;;;11.77;2.38;;;11.60;99.90;;;;;;5121431;27;20050;-68
2022/10/09 09:24:51;;;;;;;6.60;1.83;;;11.80;99.90;;;;;;5095634;27;20042;-68
2022/10/09 09:27:19;;;;;;;8.88;2.28;;;11.80;99.90;;;;;;5117742;27;20494;-68
2022/10/09 09:30:03;;;;;;;9.00;2.10;;;12.00;99.90;;;;;;5089391;27;20504;-69
2022/10/09 09:32:29;;;;;;;9.10;2.95;;;12.10;99.90;;;;;;5096877;27;20046;-69
2022/10/09 09:35:11;;;;;;;16.55;3.40;;;12.30;99.90;;;;;;5116225;27;20126;-68
2022/10/09 09:37:36;;;;;;;12.43;3.47;;;12.40;99.90;;;;;;5108974;28;20112;-68
2022/10/09 09:40:03;;;;;;;9.00;2.65;;;12.50;99.90;;;;;;5092048;28;20051;-69
2022/10/09 09:42:30;;;;;;;15.07;2.40;;;12.60;99.90;;;;;;5106343;27;20476;-69
2022/10/09 09:45:04;;;;;;;11.70;2.10;;;12.80;99.90;;;;;;5107936;28;20075;-68
2022/10/09 09:47:45;;;;;;;10.93;1.75;;;13.00;99.90;;;;;;5094687;27;20043;-68
2022/10/09 09:50:12;;;;;;;10.68;1.85;;;13.10;99.30;;;;;;5116567;27;20772;-68
2022/10/09 09:52:44;;;;;;;10.18;1.85;;;13.20;98.90;;;;;;5113283;27;20734;-68
2022/10/09 09:55:42;;;;;;;11.55;1.77;;;13.40;99.50;;;;;;5101016;27;20058;-68
2022/10/09 09:58:14;;;;;;;10.35;2.05;;;13.70;99.60;;;;;;5062388;28;20105;-68
2022/10/09 10:00:51;;;;;;;11.32;2.17;;;13.90;98.50;;;;;;5114604;27;20047;-68
2022/10/09 10:03:17;;;;;;;6.45;1.60;;;14.10;98.80;;;;;;5088350;27;20043;-68
2022/10/09 10:05:43;;;;;;;10.88;1.92;;;14.30;99.00;;;;;;5108812;28;20043;-68
2022/10/09 10:08:13;;;;;;;7.88;1.83;;;14.40;98.70;;;;;;5108830;28;20081;-67
2022/10/09 10:10:46;;;;;;;8.85;1.70;;;14.60;97.30;;;;;;5118847;27;20643;-68
2022/10/09 10:13:33;;;;;;;8.73;2.05;;;14.70;97.00;;;;;;5089105;27;20069;-68
2022/10/09 10:15:59;;;;;;;7.03;1.90;;;14.80;95.90;;;;;;5121975;27;20047;-71
2022/10/09 10:18:27;;;;;;;8.80;2.05;;;15.00;95.90;;;;;;5088992;28;20053;-70
2022/10/09 10:21:17;;;;;;;7.05;1.30;;;15.20;96.30;;;;;;5105227;27;20054;-72
2022/10/09 10:23:53;;;;;;;5.93;1.60;;;15.40;95.10;;;;;;5102950;27;20078;-70
2022/10/09 10:26:37;;;;;;;7.25;1.13;;;15.60;94.30;;;;;;5090682;27;20490;-70
2022/10/09 10:29:17;;;;;;;8.63;1.80;;;15.70;93.60;;;;;;5127101;27;20055;-71
2022/10/09 10:32:01;;;;;;;6.32;1.55;;;15.90;92.80;;;;;;5107389;27;20045;-71
2022/10/09 10:34:48;;;;;;;7.78;1.20;;;16.20;92.20;;;;;;5108632;27;20072;-71
2022/10/09 10:37:14;;;;;;;6.32;1.33;;;16.20;90.40;;;;;;5089521;28;20139;-71
2022/10/09 10:39:57;;;;;;;7.90;1.33;;;16.50;90.50;;;;;;5098197;28;20169;-71
2022/10/09 10:42:39;;;;;;;10.88;1.33;;;17.10;91.00;;;;;;5095305;28;20055;-70
2022/10/09 10:45:15;;;;;;;8.02;1.58;;;18.00;90.20;;;;;;5092618;28;20508;-64
2022/10/09 10:47:45;;;;;;;8.05;1.98;;;18.70;85.80;;;;;;5084652;28;20047;-65
2022/10/09 10:50:12;;;;;;;5.22;1.02;;;19.20;81.70;;;;;;5089493;28;20044;-66
2022/10/09 10:52:53;;;;;;;5.45;1.60;;;20.20;78.30;;;;;;5101684;28;20066;-70
2022/10/09 10:55:37;;;;;;;8.50;1.75;;;21.00;74.40;;;;;;5104533;28;20047;-66
2022/10/09 10:58:22;;;;;;;10.55;1.95;;;21.40;72.90;;;;;;5088563;28;20357;-67
2022/10/09 11:01:11;;;;;;;7.18;1.35;;;21.60;69.70;;;;;;5097789;28;20039;-66
2022/10/09 11:03:49;;;;;;;6.03;1.50;;;20.80;65.10;;;;;;5066182;28;20046;-66
2022/10/09 11:06:40;;;;;;;6.95;1.30;;;21.80;66.70;;;;;;5101643;28;20105;-65
2022/10/09 11:09:21;;;;;;;4.85;1.45;;;21.50;61.90;;;;;;5085052;28;20051;-66
2022/10/09 11:11:51;;;;;;;6.35;1.10;;;21.40;63.50;;;;;;5055471;28;20122;-68
2022/10/09 11:14:23;;;;;;;5.57;1.20;;;21.10;65.40;;;;;;5057869;28;20047;-67
2022/10/09 11:16:58;;;;;;;4.32;1.10;;;21.50;67.00;;;;;;5107159;28;20032;-66
2022/10/09 11:19:32;;;;;;;4.60;1.20;;;23.10;65.40;;;;;;5108443;28;20047;-68
2022/10/09 11:22:02;;;;;;;9.50;1.63;;;22.90;59.70;;;;;;5103437;28;20171;-67
2022/10/09 11:24:58;;;;;;;6.18;1.52;;;23.00;60.00;;;;;;5084141;28;20044;-66
2022/10/09 11:27:51;;;;;;;6.72;1.40;;;22.00;58.90;;;;;;5104700;28;20059;-67
2022/10/09 11:30:17;;;;;;;6.55;1.30;;;23.20;58.10;;;;;;5100128;28;20043;-67
2022/10/09 11:33:09;;;;;;;4.72;1.30;;;22.80;61.00;;;;;;5095959;28;20044;-65
2022/10/09 11:36:00;;;;;;;5.80;1.40;;;23.40;60.20;;;;;;5093232;28;20059;-68
2022/10/09 11:38:29;;;;;;;7.88;1.25;;;23.00;57.30;;;;;;5088803;28;20123;-67
2022/10/09 11:40:55;;;;;;;6.30;1.25;;;21.20;58.30;;;;;;5102701;28;20443;-67
2022/10/09 11:43:24;;;;;;;6.60;1.63;;;20.40;65.70;;;;;;5108501;28;20074;-66
2022/10/09 11:45:54;;;;;;;10.02;2.58;;;21.40;62.60;;;;;;5121201;27;20043;-67
2022/10/09 11:48:38;;;;;;;10.57;5.10;;;21.80;61.00;;;;;;5109042;28;20047;-67
2022/10/09 11:51:23;;;;;;;5.28;1.58;;;22.30;63.40;;;;;;5122953;27;20054;-69
2022/10/09 11:53:50;;;;;;;12.52;5.45;;;21.90;59.80;;;;;;5087975;27;20103;-67
2022/10/09 11:56:29;;;;;;;11.48;6.68;;;21.50;62.90;;;;;;5129137;27;20051;-68
2022/10/09 11:59:02;;;;;;;7.50;2.20;;;22.10;63.30;;;;;;5114845;27;20051;-67
2022/10/09 12:01:32;;;;;;;9.60;4.80;;;22.40;61.40;;;;;;5090345;27;20047;-67
2022/10/09 12:04:07;;;;;;;7.38;2.10;;;22.70;61.10;;;;;;5093318;27;20112;-67
2022/10/09 12:06:48;;;;;;;6.10;1.70;;;23.00;58.70;;;;;;5132230;27;20061;-67
2022/10/09 12:09:30;;;;;;;5.38;1.50;;;23.00;57.40;;;;;;5094136;27;20044;-68
2022/10/09 12:12:15;;;;;;;4.88;1.40;;;22.60;58.80;;;;;;5103857;27;20039;-69
2022/10/09 12:14:42;;;;;;;6.93;1.60;;;24.00;57.80;;;;;;5128593;27;20100;-69
2022/10/09 12:17:35;;;;;;;5.80;2.10;;;23.20;54.30;;;;;;5090826;27;20043;-69
2022/10/09 12:20:06;;;;;;;6.60;1.63;;;22.50;59.60;;;;;;5118250;27;20768;-69
2022/10/09 12:22:46;;;;;;;4.18;1.40;;;23.40;57.30;;;;;;5126065;27;20063;-69
2022/10/09 12:25:29;;;;;;;4.30;1.38;;;24.50;56.60;;;;;;5113907;27;20342;-67
2022/10/09 12:27:56;;;;;;;6.45;1.10;;;25.30;50.70;;;;;;5121861;27;20053;-69
2022/10/09 12:30:33;;;;;;;4.65;1.40;;;25.90;51.80;;;;;;5114134;27;20050;-69
2022/10/09 12:33:16;;;;;;;7.10;1.60;;;25.50;47.90;;;;;;5131012;27;20067;-68
2022/10/09 12:35:44;;;;;;;3.30;1.15;;;24.10;47.30;;;;;;5111187;27;20440;-69
2022/10/09 12:38:27;;;;;;;4.07;1.00;;;24.50;48.90;;;;;;5111376;27;20039;-68
2022/10/09 12:40:53;;;;;;;6.15;1.52;;;24.80;51.40;;;;;;5106236;27;20039;-72
2022/10/09 12:43:20;;;;;;;4.05;1.20;;;26.20;50.30;;;;;;5113862;27;20043;-73
2022/10/09 12:45:46;;;;;;;6.43;1.30;;;26.10;47.20;;;;;;5113334;27;20043;-73
2022/10/09 12:48:12;;;;;;;4.32;1.10;;;26.30;47.50;;;;;;5112801;27;20043;-74
2022/10/09 12:50:42;;;;;;;4.82;1.50;;;27.10;47.30;;;;;;5123331;27;20047;-74
2022/10/09 12:53:25;;;;;;;5.22;1.25;;;27.60;45.70;;;;;;5123050;27;20057;-73
2022/10/09 12:55:58;;;;;;;8.20;1.40;;;26.60;42.50;;;;;;5096347;27;20043;-74
2022/10/09 12:58:40;;;;;;;5.47;1.33;;;26.70;44.70;;;;;;5125583;27;20128;-74
2022/10/09 13:01:06;;;;;;;5.80;1.50;;;27.00;43.80;;;;;;5109858;27;20150;-73
2022/10/09 13:03:37;;;;;;;5.00;1.40;;;26.40;43.70;;;;;;5109482;27;20472;-72
2022/10/09 13:06:26;;;;;;;5.90;1.35;;;25.80;44.40;;;;;;5096935;27;20126;-74